Darstellungsparameter: Aktuell verwendete Einstellungen:
Skalierung der Graphiken ... ?
xyx+y,   Skalierungsfaktor:      Skalierung: Modus: x, Faktor: 1
Darstellungszeitraum ... ?
Vom - - bis: - -   Zeitraum: 30.06.2017 - 29.09.2017
Min/Max/Avg-Anzeige ... ?
Zeige MMA aktuell
Zeige MMA Monat
Zeige MMA alles
Zeige --A aktuell
Zeige --A Monat
Zeige --A alles
Keine MMA-Anzeige
MMA:
Average (ber die Originaldaten)
MMA-Basis: 23.02.2003 - 30.09.2020
Quicknavigation für Darstellung... ?
Tage:      1T, 2T, 3T, 5T -1T -2T -3T -5T +1T +2T +3T +5T
Wochen: 1W, 2W, 3W -1W -2W -3W +1W +2W +3W
Monate: 1M, 3M, 6M -1M -3M -6M +1M +3M +6M
Jahre:    1J, 3J, 5J, 10J -1J -3J -5J -10J +1J +3J +5J +10J
Nutze für die Darstellung ... ?
Originaldaten oder ...
Mittelwerte Minima Maxima auf...
Stundenbasis Tagesbasis Wochenbasis
Monatsbasis Jahresbasis      Datenbasis: Mittelwerte auf Tagesbasis
Darstellen als:
Statistik (Auto) Statistik J:M      Darstellung:
Zur Graphik,    zurück zur Übersicht aller Sensoren.
 
Tabellarische Datenbersicht: ?
 
Sensor: Nr:Datum:Temp:Abs-Feuchte:Windchill:Wind:
Aussen-T/F 1 30-06-2017 00:00:00 17.41624 C 11.48 g/m*3 17.42 C 7.40111 km/h
2 01-07-2017 00:00:00 16.45451 C 12.55 g/m*3 16.45 C 5.17604 km/h
3 02-07-2017 00:00:00 16.87188 C 12.67 g/m*3 16.87 C 4.40313 km/h
4 03-07-2017 00:00:00 17.94201 C 11.16 g/m*3 17.94 C 5.63924 km/h
5 04-07-2017 00:00:00 19.98993 C 11.91 g/m*3 19.99 C 3.58125 km/h
6 05-07-2017 00:00:00 21.5875 C 13.09 g/m*3 21.59 C 3.70139 km/h
7 06-07-2017 00:00:00 21.41701 C 14.36 g/m*3 21.42 C 3.34063 km/h
8 07-07-2017 00:00:00 23.46076 C 15.57 g/m*3 23.46 C 5.92986 km/h
9 08-07-2017 00:00:00 22.5559 C 14.13 g/m*3 22.56 C 3.05868 km/h
10 09-07-2017 00:00:00 22.69271 C 14.97 g/m*3 22.69 C 3.67882 km/h
11 10-07-2017 00:00:00 19.75243 C 16.01 g/m*3 19.75 C 0.84063 km/h
12 11-07-2017 00:00:00 19.33264 C 13.61 g/m*3 19.33 C 5.26319 km/h
13 12-07-2017 00:00:00 17.22951 C 13.12 g/m*3 17.23 C 7.25833 km/h
14 13-07-2017 00:00:00 15.53958 C 10.03 g/m*3 15.54 C 3.51319 km/h
15 14-07-2017 00:00:00 16.34653 C 10.78 g/m*3 16.35 C 3.36563 km/h
16 15-07-2017 00:00:00 16.46389 C 10.44 g/m*3 16.46 C 3.6184 km/h
17 16-07-2017 00:00:00 19.03924 C 13.25 g/m*3 19.04 C 3.24653 km/h
18 17-07-2017 00:00:00 20.61007 C 14.55 g/m*3 20.61 C 2.96979 km/h
19 18-07-2017 00:00:00 21.7625 C 14.45 g/m*3 21.76 C 3.56875 km/h
20 19-07-2017 00:00:00 23.46806 C 15.48 g/m*3 23.47 C 3.69097 km/h
21 20-07-2017 00:00:00 21.83889 C 15.3 g/m*3 21.84 C 5.35903 km/h
22 21-07-2017 00:00:00 20.14583 C 12.5 g/m*3 20.15 C 3.22951 km/h
23 22-07-2017 00:00:00 21.77813 C 15.77 g/m*3 21.78 C 2.44236 km/h
24 23-07-2017 00:00:00 18.27639 C 12.29 g/m*3 18.28 C 5.68299 km/h
25 24-07-2017 00:00:00 14.9816 C 11.7 g/m*3 14.98 C 1.8816 km/h
Sensor: Nr:Datum:Temp:Abs-Feuchte:Windchill:Wind:
Aussen-T/F 26 25-07-2017 00:00:00 14.46979 C 11.94 g/m*3 14.47 C 3.57743 km/h
27 26-07-2017 00:00:00 17.50729 C 12.83 g/m*3 17.51 C 6.14132 km/h
28 27-07-2017 00:00:00 18.9184 C 14.54 g/m*3 18.92 C 3.37674 km/h
29 28-07-2017 00:00:00 17.14236 C 12.2 g/m*3 17.14 C 4.89167 km/h
30 29-07-2017 00:00:00 20.44271 C 14.37 g/m*3 20.44 C 3.35764 km/h
31 30-07-2017 00:00:00 22.74236 C 14.92 g/m*3 22.74 C 7.14931 km/h
32 31-07-2017 00:00:00 20.73542 C 14.05 g/m*3 20.74 C 3.22917 km/h
33 01-08-2017 00:00:00 19.90799 C 16.27 g/m*3 19.91 C 1.10174 km/h
34 02-08-2017 00:00:00 21.09306 C 15.93 g/m*3 21.09 C 2.4434 km/h
35 03-08-2017 00:00:00 21.32153 C 15.57 g/m*3 21.32 C 4.87639 km/h
36 04-08-2017 00:00:00 20.4309 C 13.51 g/m*3 20.43 C 5.63403 km/h
37 05-08-2017 00:00:00 18.99826 C 12.99 g/m*3 19 C 5.44931 km/h
38 06-08-2017 00:00:00 17.06181 C 10.81 g/m*3 17.06 C 2.57917 km/h
39 07-08-2017 00:00:00 17.21319 C 10.92 g/m*3 17.21 C 1.88125 km/h
40 08-08-2017 00:00:00 17.34063 C 12.81 g/m*3 17.34 C 1.82118 km/h
41 09-08-2017 00:00:00 17.64167 C 11.72 g/m*3 17.64 C 2.90521 km/h
42 10-08-2017 00:00:00 15.45139 C 12.48 g/m*3 15.45 C 0.27292 km/h
43 11-08-2017 00:00:00 14.99271 C 12.23 g/m*3 14.99 C 2.51771 km/h
44 12-08-2017 00:00:00 15.39965 C 12.41 g/m*3 15.4 C 7.06667 km/h
45 13-08-2017 00:00:00 18.25694 C 13.14 g/m*3 18.26 C 3.16806 km/h
46 14-08-2017 00:00:00 18.07396 C 13.46 g/m*3 18.07 C 1.50764 km/h
47 15-08-2017 00:00:00 18.78299 C 15.05 g/m*3 18.78 C 0.67396 km/h
48 16-08-2017 00:00:00 19.80486 C 14.91 g/m*3 19.8 C 0.68403 km/h
49 17-08-2017 00:00:00 19.18438 C 14.38 g/m*3 19.18 C 2.50069 km/h
50 18-08-2017 00:00:00 18.28819 C 14.71 g/m*3 18.29 C 1.55625 km/h
Sensor: Nr:Datum:Temp:Abs-Feuchte:Windchill:Wind:
Aussen-T/F 51 19-08-2017 00:00:00 14.62049 C 11.35 g/m*3 14.62 C 4.0434 km/h
52 20-08-2017 00:00:00 14.85243 C 10.98 g/m*3 14.85 C 3.08681 km/h
53 21-08-2017 00:00:00 15.85833 C 11.1 g/m*3 15.86 C 1.35313 km/h
54 22-08-2017 00:00:00 15.7316 C 11.38 g/m*3 15.73 C 0 km/h
55 23-08-2017 00:00:00 17.82812 C 12.81 g/m*3 17.83 C 0.16215 km/h
56 24-08-2017 00:00:00 19.30625 C 13.63 g/m*3 19.31 C 1.4684 km/h
57 25-08-2017 00:00:00 18.12049 C 13.83 g/m*3 18.12 C 0.43646 km/h
58 26-08-2017 00:00:00 20.59861 C 16.63 g/m*3 20.6 C 0.80938 km/h
59 27-08-2017 00:00:00 19.43507 C 14.96 g/m*3 19.44 C 0.06667 km/h
60 28-08-2017 00:00:00 19.49063 C 14.39 g/m*3 19.49 C 0.04444 km/h
61 29-08-2017 00:00:00 19.97986 C 14.91 g/m*3 19.98 C 0 km/h
62 30-08-2017 00:00:00 20.58819 C 15.93 g/m*3 20.59 C 0.45868 km/h
63 31-08-2017 00:00:00 17.03194 C 12.63 g/m*3 17.03 C 2.87639 km/h
64 01-09-2017 00:00:00 13.72639 C 10.48 g/m*3 13.73 C 0.7375 km/h
65 02-09-2017 00:00:00 14.2625 C 10.96 g/m*3 14.26 C 1.05694 km/h
66 03-09-2017 00:00:00 13.22257 C 10.09 g/m*3 13.22 C 0.08368 km/h
67 04-09-2017 00:00:00 13.75208 C 10.7 g/m*3 13.75 C 0 km/h
68 05-09-2017 00:00:00 17.85347 C 13.75 g/m*3 17.85 C 0.95694 km/h
69 06-09-2017 00:00:00 17.36389 C 11.62 g/m*3 17.36 C 6.73403 km/h
70 07-09-2017 00:00:00 15.38472 C 10.58 g/m*3 15.38 C 4.74201 km/h
71 08-09-2017 00:00:00 15.88958 C 10.93 g/m*3 15.89 C 6.42396 km/h
72 09-09-2017 00:00:00 14.59236 C 11.45 g/m*3 14.59 C 4.23333 km/h
73 10-09-2017 00:00:00 13.23924 C 10.22 g/m*3 13.24 C 3.54236 km/h
74 11-09-2017 00:00:00 14.41667 C 10.52 g/m*3 14.42 C 5.17014 km/h
75 12-09-2017 00:00:00 14.27674 C 10.36 g/m*3 14.28 C 7.5184 km/h
Sensor: Nr:Datum:Temp:Abs-Feuchte:Windchill:Wind:
Aussen-T/F 76 13-09-2017 00:00:00 14.43993 C 10.85 g/m*3 14.44 C 8.21215 km/h
77 14-09-2017 00:00:00 11.98194 C 9.8 g/m*3 11.98 C 8.05938 km/h
78 15-09-2017 00:00:00 12.37917 C 9.61 g/m*3 12.38 C 4.32257 km/h
79 16-09-2017 00:00:00 10.41007 C 8.52 g/m*3 10.41 C 2.40174 km/h
80 17-09-2017 00:00:00 9.97118 C 8.91 g/m*3 9.97 C 0.17222 km/h
81 18-09-2017 00:00:00 10.50764 C 8.82 g/m*3 10.51 C 3.9375 km/h
82 19-09-2017 00:00:00 11.95903 C 9.85 g/m*3 11.96 C 1.32465 km/h
83 20-09-2017 00:00:00 11.3184 C 9.46 g/m*3 11.32 C 2.12014 km/h
84 21-09-2017 00:00:00 10.7559 C 9.09 g/m*3 10.76 C 0 km/h
85 22-09-2017 00:00:00 11.39757 C 9.52 g/m*3 11.4 C 0.00556 km/h
86 23-09-2017 00:00:00 13.63785 C 10.56 g/m*3 13.64 C 0.44618 km/h
87 24-09-2017 00:00:00 12.54826 C 10.32 g/m*3 12.55 C 0.02222 km/h
88 25-09-2017 00:00:00 12.85729 C 10.45 g/m*3 12.86 C 0.28889 km/h
89 26-09-2017 00:00:00 13.54097 C 10.8 g/m*3 13.54 C 0.12222 km/h
90 27-09-2017 00:00:00 13.15069 C 10.78 g/m*3 13.15 C 0 km/h
91 28-09-2017 00:00:00 14.79861 C 11.89 g/m*3 14.8 C 0.01111 km/h
92 29-09-2017 00:00:00 17.64722 C 13.79 g/m*3 17.65 C 0.12778 km/h

Maximal/Minimal-Werte vom 23.02.2003 - 30.09.2020

Sensor Min Max Avg
Temp
(Aussen-T/F)
-16.4 °C
20-12-2009  01:30:01
40.4 °C
25-07-2019  16:20:00
11.32 °C

Die Daten stammen von einer Davis Vantage Pro 2 Wetter-Station und werden unter Linux mit der Software wview2wettercgi und aufbereitet. Alle Angaben erfolgen ohne Gewähr für ihre Vollständigkeit oder Richtigkeit.
Kontakt: Rainer Krienke krienke@uni-koblenz.de . Meine Webseiten an der Uni Koblenz oder privat.
Version: $Revision: 0.78 $